Time;durP1;ratioP1;P1;durP2;ratioP2;P2;SDS_P1;SDS_P2;PMS_P1;PMS_P2;Temp;Humidity;BMP_temperature;BMP_pressure;BME280_temperature;BME280_humidity;BME280_pressure;Samples;Min_cycle;Max_cycle;Signal;HPM_P1;HPM_P2
2022/05/06 00:01:44;;;;;;;4.35;2.00;;;12.30;99.90;;;;;;5117753;28;20026;-84
2022/05/06 00:04:10;;;;;;;3.00;2.08;;;12.40;99.90;;;;;;5117542;28;20077;-84
2022/05/06 00:06:36;;;;;;;3.28;2.17;;;12.40;99.90;;;;;;5099038;28;20028;-84
2022/05/06 00:09:03;;;;;;;3.40;2.08;;;12.40;99.90;;;;;;5099001;28;20030;-84
2022/05/06 00:11:30;;;;;;;3.20;2.00;;;12.40;99.90;;;;;;5117394;28;20030;-83
2022/05/06 00:13:55;;;;;;;4.05;2.65;;;12.30;99.90;;;;;;5117279;28;20499;-84
2022/05/06 00:16:23;;;;;;;3.63;2.70;;;12.30;99.90;;;;;;5117013;28;20023;-83
2022/05/06 00:18:49;;;;;;;3.88;2.80;;;12.30;99.90;;;;;;5117495;28;20016;-83
2022/05/06 00:21:15;;;;;;;3.92;2.90;;;12.30;99.90;;;;;;5116909;28;20035;-83
2022/05/06 00:23:41;;;;;;;5.18;2.88;;;12.20;99.90;;;;;;5116837;28;20015;-83
2022/05/06 00:26:08;;;;;;;4.38;2.78;;;12.20;99.90;;;;;;5116740;28;20495;-83
2022/05/06 00:28:34;;;;;;;3.85;2.90;;;12.10;99.90;;;;;;5116721;28;20094;-83
2022/05/06 00:31:01;;;;;;;6.70;2.80;;;12.10;99.90;;;;;;5116800;28;20027;-83
2022/05/06 00:33:28;;;;;;;5.28;3.25;;;12.00;99.90;;;;;;5117015;28;20043;-83
2022/05/06 00:35:54;;;;;;;4.00;2.75;;;12.00;99.90;;;;;;5098652;28;20016;-84
2022/05/06 00:38:21;;;;;;;3.13;2.60;;;11.90;99.90;;;;;;5117087;28;20031;-83
2022/05/06 00:40:46;;;;;;;3.42;2.72;;;11.80;99.90;;;;;;5116539;28;20023;-84
2022/05/06 00:43:12;;;;;;;4.90;2.63;;;11.70;99.90;;;;;;5116391;28;20513;-83
2022/05/06 00:45:47;;;;;;;5.80;3.03;;;11.70;99.90;;;;;;5116346;28;20030;-84
2022/05/06 00:48:14;;;;;;;3.60;2.63;;;11.60;99.90;;;;;;5116537;28;20031;-83
2022/05/06 00:50:40;;;;;;;3.97;2.97;;;11.60;99.90;;;;;;5098019;28;20027;-84
2022/05/06 00:53:08;;;;;;;4.43;2.80;;;11.50;99.90;;;;;;5116238;28;20022;-84
2022/05/06 00:55:35;;;;;;;3.63;2.80;;;11.50;99.90;;;;;;5097941;28;20015;-84
2022/05/06 00:58:02;;;;;;;3.58;2.53;;;11.60;99.90;;;;;;5097927;28;20086;-84
2022/05/06 01:00:29;;;;;;;3.53;2.40;;;11.60;99.90;;;;;;5097998;28;20036;-84
2022/05/06 01:02:55;;;;;;;4.53;2.88;;;11.60;99.90;;;;;;5098331;28;20027;-84
2022/05/06 01:05:25;;;;;;;17.60;6.68;;;11.70;99.90;;;;;;5109780;28;20484;-84
2022/05/06 01:07:51;;;;;;;26.58;9.80;;;11.70;99.90;;;;;;5111945;28;20031;-84
2022/05/06 01:10:18;;;;;;;18.02;7.00;;;11.80;99.90;;;;;;5108623;28;20388;-84
2022/05/06 01:12:44;;;;;;;11.55;5.28;;;11.80;99.90;;;;;;5085612;28;20491;-84
2022/05/06 01:15:36;;;;;;;8.82;4.53;;;11.90;99.90;;;;;;5090490;28;20118;-84
2022/05/06 01:18:02;;;;;;;8.55;3.58;;;11.90;99.90;;;;;;5103176;27;20081;-84
2022/05/06 01:20:28;;;;;;;4.28;2.80;;;11.90;99.90;;;;;;5099616;28;20062;-84
2022/05/06 01:23:00;;;;;;;4.18;2.65;;;11.90;99.90;;;;;;5114725;28;20039;-84
2022/05/06 01:25:27;;;;;;;4.00;2.00;;;11.90;99.90;;;;;;5104421;28;20475;-84
2022/05/06 01:28:01;;;;;;;3.42;2.20;;;11.90;99.90;;;;;;5096006;28;20035;-83
2022/05/06 01:30:29;;;;;;;2.95;2.10;;;11.80;99.90;;;;;;5097295;28;20016;-84
2022/05/06 01:32:56;;;;;;;2.92;2.00;;;11.70;99.90;;;;;;5115785;28;20031;-83
2022/05/06 01:35:24;;;;;;;2.83;2.10;;;11.60;99.90;;;;;;5115349;28;20041;-84
2022/05/06 01:37:54;;;;;;;3.75;2.30;;;11.60;99.90;;;;;;5115508;28;20030;-84
2022/05/06 01:40:21;;;;;;;2.72;1.80;;;11.50;99.90;;;;;;5116191;28;20019;-84
2022/05/06 01:42:50;;;;;;;2.78;2.03;;;11.40;99.90;;;;;;5096925;28;20039;-84
2022/05/06 01:45:18;;;;;;;4.32;2.15;;;11.40;99.90;;;;;;5115496;28;20018;-84
2022/05/06 01:47:44;;;;;;;3.70;2.17;;;11.40;99.90;;;;;;5096778;28;20024;-84
2022/05/06 01:50:12;;;;;;;3.33;2.10;;;11.40;99.90;;;;;;5097077;28;20054;-84
2022/05/06 01:52:41;;;;;;;2.97;2.08;;;11.50;99.90;;;;;;5096760;28;20016;-83
2022/05/06 01:55:07;;;;;;;2.90;2.20;;;11.50;99.90;;;;;;5096769;28;20119;-84
2022/05/06 01:57:33;;;;;;;5.38;2.40;;;11.50;99.90;;;;;;5096837;28;20110;-84
2022/05/06 01:59:58;;;;;;;5.65;2.33;;;11.60;99.90;;;;;;5096759;28;20455;-84
2022/05/06 02:02:24;;;;;;;4.07;2.47;;;11.60;99.90;;;;;;5115303;28;20407;-84
2022/05/06 02:07:34;;;;;;;3.22;2.20;;;11.60;99.90;;;;;;5114983;28;20081;-84
2022/05/06 02:09:59;;;;;;;3.10;2.30;;;11.60;99.90;;;;;;5114793;28;20015;-84
2022/05/06 02:12:26;;;;;;;3.00;2.08;;;11.70;99.90;;;;;;5114734;28;20019;-84
2022/05/06 02:14:52;;;;;;;3.38;2.20;;;11.70;99.90;;;;;;5114698;28;20429;-84
2022/05/06 02:17:17;;;;;;;5.07;2.55;;;11.70;99.90;;;;;;5114643;28;20023;-84
2022/05/06 02:19:43;;;;;;;5.97;3.40;;;11.70;99.90;;;;;;5114054;28;20551;-84
2022/05/06 02:22:09;;;;;;;6.50;3.20;;;11.70;99.90;;;;;;5096250;28;20059;-84
2022/05/06 02:24:34;;;;;;;4.15;2.63;;;11.60;99.90;;;;;;5114833;28;20507;-84
2022/05/06 02:27:00;;;;;;;3.80;2.60;;;11.50;99.90;;;;;;5112689;28;20034;-84
2022/05/06 02:29:25;;;;;;;6.85;4.10;;;11.50;99.90;;;;;;5094179;28;20466;-84
2022/05/06 02:34:35;;;;;;;9.77;6.18;;;11.40;99.90;;;;;;5112585;28;20404;-84
2022/05/06 02:37:01;;;;;;;10.10;6.20;;;11.40;99.90;;;;;;5093917;28;20024;-84
2022/05/06 02:39:27;;;;;;;8.88;4.60;;;11.40;99.90;;;;;;5093945;28;20024;-83
2022/05/06 02:41:52;;;;;;;7.05;3.92;;;11.40;99.90;;;;;;5113321;28;20103;-83
2022/05/06 02:44:18;;;;;;;4.88;3.28;;;11.40;99.90;;;;;;5114317;28;20031;-84
2022/05/06 02:46:43;;;;;;;5.70;3.20;;;11.40;99.90;;;;;;5095930;28;20537;-84
2022/05/06 02:49:09;;;;;;;6.18;3.50;;;11.40;99.90;;;;;;5096017;28;20024;-84
2022/05/06 02:51:35;;;;;;;5.55;3.53;;;11.40;99.90;;;;;;5095901;28;20111;-84
2022/05/06 02:54:01;;;;;;;8.20;4.80;;;11.40;99.90;;;;;;5096484;28;20024;-84
2022/05/06 02:56:26;;;;;;;6.95;4.45;;;11.40;99.90;;;;;;5114204;28;20084;-85
2022/05/06 02:58:52;;;;;;;6.65;4.32;;;11.50;99.90;;;;;;5114196;28;20055;-84
2022/05/06 03:01:18;;;;;;;4.68;3.20;;;11.50;99.90;;;;;;5095851;28;20055;-85
2022/05/06 03:03:44;;;;;;;5.63;3.72;;;11.50;99.90;;;;;;5113913;28;20028;-84
2022/05/06 03:06:09;;;;;;;4.95;3.13;;;11.60;99.90;;;;;;5113815;28;20060;-84
2022/05/06 03:08:36;;;;;;;4.65;2.95;;;11.50;99.90;;;;;;5113749;28;20102;-84
2022/05/06 03:11:02;;;;;;;3.35;2.50;;;11.50;99.90;;;;;;5095551;28;20027;-84
2022/05/06 03:13:28;;;;;;;4.80;3.03;;;11.40;99.90;;;;;;5113794;28;20016;-85
2022/05/06 03:15:53;;;;;;;3.50;2.42;;;11.40;99.90;;;;;;5095459;28;20020;-84
2022/05/06 03:18:19;;;;;;;6.63;2.88;;;11.40;99.90;;;;;;5095529;28;20066;-84
2022/05/06 03:20:45;;;;;;;4.05;2.70;;;11.40;99.90;;;;;;5095574;28;20031;-85
2022/05/06 03:23:13;;;;;;;4.85;2.95;;;11.40;99.90;;;;;;5113803;28;20024;-85
2022/05/06 03:25:39;;;;;;;3.70;2.58;;;11.40;99.90;;;;;;5095413;28;20032;-84
2022/05/06 03:28:07;;;;;;;4.85;2.78;;;11.40;99.90;;;;;;5113625;28;20513;-84
2022/05/06 03:30:40;;;;;;;3.70;2.80;;;11.40;99.90;;;;;;5115773;28;20047;-84
2022/05/06 03:33:10;;;;;;;3.97;2.55;;;11.40;99.90;;;;;;5118346;28;20036;-84
2022/05/06 03:35:39;;;;;;;3.33;2.53;;;11.40;99.90;;;;;;5099472;28;20020;-84
2022/05/06 03:38:06;;;;;;;3.53;2.17;;;11.40;99.90;;;;;;5117653;28;20019;-84
2022/05/06 03:40:33;;;;;;;3.83;3.00;;;11.40;99.90;;;;;;5117606;28;20498;-83
2022/05/06 03:43:00;;;;;;;6.25;4.05;;;11.40;99.90;;;;;;5117794;28;20085;-83
2022/05/06 03:45:26;;;;;;;6.63;4.07;;;11.40;99.90;;;;;;5118461;28;20024;-83
2022/05/06 03:47:54;;;;;;;7.45;4.07;;;11.40;99.90;;;;;;5118686;28;20434;-84
2022/05/06 03:53:09;;;;;;;4.93;3.47;;;11.40;99.90;;;;;;5086004;28;20111;-84
2022/05/06 03:55:35;;;;;;;3.92;3.08;;;11.40;99.90;;;;;;5115615;28;20534;-84
2022/05/06 03:58:00;;;;;;;4.88;3.22;;;11.40;99.90;;;;;;5114603;28;20028;-84
2022/05/06 04:00:26;;;;;;;4.85;2.90;;;11.40;99.90;;;;;;5115631;28;20538;-83
2022/05/06 04:02:52;;;;;;;3.35;2.67;;;11.40;99.90;;;;;;5097262;28;20027;-83
2022/05/06 04:05:18;;;;;;;4.75;3.08;;;11.40;99.90;;;;;;5116155;28;20146;-83
2022/05/06 04:07:44;;;;;;;8.20;4.10;;;11.40;99.90;;;;;;5117659;28;20520;-83
2022/05/06 04:10:09;;;;;;;5.45;3.50;;;11.40;99.90;;;;;;5117401;28;20016;-83
2022/05/06 04:12:35;;;;;;;5.78;3.38;;;11.40;99.90;;;;;;5116090;28;20051;-83
2022/05/06 04:15:01;;;;;;;5.97;4.22;;;11.40;99.90;;;;;;5116024;28;20023;-83
2022/05/06 04:17:26;;;;;;;6.32;3.58;;;11.40;99.90;;;;;;5116407;28;20020;-83
2022/05/06 04:25:21;;;;;;;4.72;2.97;;;11.40;99.90;;;;;;5117328;28;20031;-83
2022/05/06 04:27:46;;;;;;;3.42;2.50;;;11.40;99.90;;;;;;5116856;28;20023;-84
2022/05/06 04:30:12;;;;;;;4.80;2.75;;;11.40;99.90;;;;;;5116639;28;20095;-84
2022/05/06 04:32:39;;;;;;;4.85;3.20;;;11.40;99.90;;;;;;5116740;28;20472;-84
2022/05/06 04:35:06;;;;;;;5.82;2.90;;;11.40;99.90;;;;;;5116557;28;20027;-84
2022/05/06 04:37:32;;;;;;;5.55;3.45;;;11.30;99.90;;;;;;5115336;28;20019;-84
2022/05/06 04:39:58;;;;;;;6.35;3.35;;;11.30;99.90;;;;;;5115248;28;20028;-84
2022/05/06 04:42:25;;;;;;;5.30;2.90;;;11.30;99.90;;;;;;5097409;28;20035;-84
2022/05/06 04:44:51;;;;;;;3.92;2.90;;;11.30;99.90;;;;;;5116432;28;20024;-84
2022/05/06 04:47:16;;;;;;;4.68;2.85;;;11.30;99.90;;;;;;5115141;28;20472;-84
2022/05/06 04:49:42;;;;;;;6.05;3.78;;;11.30;99.90;;;;;;5115206;28;20027;-84
2022/05/06 04:52:08;;;;;;;5.15;3.30;;;11.30;99.90;;;;;;5116815;28;20460;-84
2022/05/06 04:54:34;;;;;;;4.95;3.20;;;11.30;99.90;;;;;;5115012;28;20027;-84
2022/05/06 04:57:00;;;;;;;8.88;4.35;;;11.30;99.90;;;;;;5116291;28;20028;-84
2022/05/06 04:59:26;;;;;;;7.18;4.05;;;11.40;99.90;;;;;;5115021;28;20028;-84
2022/05/06 05:01:51;;;;;;;6.45;4.53;;;11.40;99.90;;;;;;5116269;28;20062;-84
2022/05/06 05:04:17;;;;;;;12.85;7.53;;;11.30;99.90;;;;;;5114962;28;20039;-84
2022/05/06 05:06:43;;;;;;;12.00;7.57;;;11.30;99.90;;;;;;5117049;28;20422;-84
2022/05/06 05:09:08;;;;;;;8.38;4.93;;;11.30;99.90;;;;;;5114857;28;20020;-84
2022/05/06 05:11:34;;;;;;;5.93;4.05;;;11.30;99.90;;;;;;5116263;28;20043;-84
2022/05/06 05:14:03;;;;;;;7.43;3.83;;;11.40;99.90;;;;;;5116589;28;20387;-84
2022/05/06 05:16:29;;;;;;;4.70;3.35;;;11.40;99.90;;;;;;5116966;28;20020;-84
2022/05/06 05:18:55;;;;;;;5.55;3.38;;;11.40;99.90;;;;;;5116203;28;20039;-84
2022/05/06 05:21:20;;;;;;;5.05;3.75;;;11.40;99.90;;;;;;5114763;28;20020;-84
2022/05/06 05:23:46;;;;;;;5.93;4.05;;;11.40;99.90;;;;;;5115408;28;20024;-84
2022/05/06 05:26:12;;;;;;;7.10;4.50;;;11.30;99.90;;;;;;5115899;28;20020;-84
2022/05/06 05:28:38;;;;;;;6.60;4.30;;;11.30;99.90;;;;;;5114263;28;20049;-84
2022/05/06 05:31:04;;;;;;;6.53;4.50;;;11.30;99.90;;;;;;5114337;28;20451;-84
2022/05/06 05:33:30;;;;;;;4.28;3.50;;;11.30;99.90;;;;;;5115530;28;20089;-84
2022/05/06 05:35:56;;;;;;;4.82;3.38;;;11.30;99.90;;;;;;5115326;28;20027;-84
2022/05/06 05:38:22;;;;;;;6.20;4.13;;;11.40;99.90;;;;;;5115648;28;20459;-83
2022/05/06 05:40:47;;;;;;;6.45;4.03;;;11.40;99.90;;;;;;5115600;28;20027;-83
2022/05/06 05:48:42;;;;;;;14.02;9.40;;;11.50;99.90;;;;;;5115586;28;20085;-83
2022/05/06 05:51:08;;;;;;;19.90;9.98;;;11.50;99.90;;;;;;5115502;28;20019;-82
2022/05/06 05:53:34;;;;;;;14.45;9.98;;;11.60;99.90;;;;;;5114084;28;20027;-83
2022/05/06 05:56:00;;;;;;;15.85;10.25;;;11.60;99.90;;;;;;5115064;28;20015;-84
2022/05/06 05:58:26;;;;;;;16.33;11.82;;;11.60;99.90;;;;;;5113642;28;20027;-84
2022/05/06 06:00:52;;;;;;;14.85;11.18;;;11.60;99.90;;;;;;5114980;28;20050;-83
2022/05/06 06:03:18;;;;;;;13.77;9.90;;;11.60;99.90;;;;;;5114960;28;20094;-83
2022/05/06 06:05:44;;;;;;;20.88;15.00;;;11.70;99.90;;;;;;5114825;28;20030;-84
2022/05/06 06:08:10;;;;;;;21.75;16.45;;;11.70;99.90;;;;;;5113437;28;20541;-83
2022/05/06 06:10:36;;;;;;;23.05;15.63;;;11.70;99.90;;;;;;5113541;28;20047;-84
2022/05/06 06:13:04;;;;;;;19.70;13.32;;;11.70;99.90;;;;;;5114839;28;20023;-84
2022/05/06 06:15:31;;;;;;;16.20;10.68;;;11.70;99.90;;;;;;5113437;28;20020;-83
2022/05/06 06:17:57;;;;;;;14.95;10.40;;;11.80;99.90;;;;;;5114678;28;20483;-83
2022/05/06 06:20:23;;;;;;;14.10;9.68;;;11.80;99.90;;;;;;5114721;28;20059;-83
2022/05/06 06:22:50;;;;;;;11.95;8.82;;;11.80;99.90;;;;;;5114803;28;20077;-83
2022/05/06 06:25:16;;;;;;;10.68;7.70;;;11.80;99.90;;;;;;5113383;28;20027;-83
2022/05/06 06:27:43;;;;;;;10.55;7.38;;;11.80;99.90;;;;;;5114416;28;20049;-83
2022/05/06 06:30:10;;;;;;;11.20;7.47;;;11.80;99.90;;;;;;5113506;28;20041;-83
2022/05/06 06:32:36;;;;;;;17.02;7.53;;;11.90;99.90;;;;;;5115160;28;20020;-83
2022/05/06 06:35:01;;;;;;;12.93;6.82;;;11.90;99.90;;;;;;5115706;28;20556;-84
2022/05/06 06:37:27;;;;;;;9.57;6.43;;;12.00;99.90;;;;;;5113749;28;20019;-84
2022/05/06 06:39:53;;;;;;;9.23;6.70;;;12.00;99.90;;;;;;5114814;28;20047;-83
2022/05/06 06:42:19;;;;;;;11.10;8.00;;;12.10;99.90;;;;;;5114592;28;20051;-83
2022/05/06 06:44:45;;;;;;;9.52;6.97;;;12.10;99.90;;;;;;5096513;28;20028;-83
2022/05/06 06:47:11;;;;;;;16.60;9.20;;;12.10;99.90;;;;;;5114367;28;20023;-83
2022/05/06 06:49:36;;;;;;;14.73;9.07;;;12.10;99.90;;;;;;5114428;28;20019;-83
2022/05/06 06:52:05;;;;;;;24.27;10.70;;;12.20;99.90;;;;;;5115750;28;20019;-83
2022/05/06 06:54:32;;;;;;;17.13;10.02;;;12.20;99.90;;;;;;5114099;28;20020;-82
2022/05/06 06:56:58;;;;;;;15.15;9.05;;;12.20;99.90;;;;;;5114666;28;20373;-82
2022/05/06 06:59:23;;;;;;;12.80;8.48;;;12.20;99.90;;;;;;5112994;28;20026;-82
2022/05/06 07:01:49;;;;;;;11.02;7.78;;;12.20;99.90;;;;;;5112891;28;20030;-82
2022/05/06 07:04:15;;;;;;;12.55;9.30;;;12.20;99.90;;;;;;5114562;28;20047;-82
2022/05/06 07:12:09;;;;;;;10.00;7.13;;;12.30;99.90;;;;;;5114704;28;20490;-82
2022/05/06 07:14:36;;;;;;;12.45;8.77;;;12.40;99.90;;;;;;5112606;28;20024;-83
2022/05/06 07:17:02;;;;;;;12.57;8.43;;;12.40;99.90;;;;;;5113911;28;20019;-82
2022/05/06 07:19:28;;;;;;;10.52;7.65;;;12.50;99.90;;;;;;5095688;28;20080;-82
2022/05/06 07:21:54;;;;;;;13.30;8.40;;;12.60;99.90;;;;;;5114749;28;20119;-82
2022/05/06 07:24:21;;;;;;;10.43;7.20;;;12.60;99.90;;;;;;5112763;28;20027;-82
2022/05/06 07:26:47;;;;;;;10.38;6.88;;;12.70;99.90;;;;;;5112594;28;20024;-82
2022/05/06 07:29:13;;;;;;;12.15;7.15;;;12.80;99.90;;;;;;5114459;28;20081;-82
2022/05/06 07:31:41;;;;;;;11.32;7.85;;;12.90;99.90;;;;;;5112674;28;20043;-82
2022/05/06 07:34:07;;;;;;;10.65;6.88;;;13.00;99.90;;;;;;5095727;28;20015;-82
2022/05/06 07:36:33;;;;;;;9.15;6.07;;;13.20;99.90;;;;;;5115331;28;20024;-82
2022/05/06 07:38:59;;;;;;;14.20;6.63;;;13.30;99.90;;;;;;5115069;28;20020;-82
2022/05/06 07:41:25;;;;;;;9.27;6.40;;;13.40;99.90;;;;;;5095515;28;20035;-82
2022/05/06 07:43:51;;;;;;;11.32;6.88;;;13.50;99.90;;;;;;5114518;28;20020;-82
2022/05/06 07:46:17;;;;;;;7.03;4.70;;;13.60;99.90;;;;;;5112295;28;20055;-82
2022/05/06 07:48:42;;;;;;;5.75;3.95;;;13.60;99.90;;;;;;5113746;28;20024;-82
2022/05/06 07:51:08;;;;;;;5.63;3.80;;;13.70;99.90;;;;;;5112278;28;20386;-82
2022/05/06 07:53:34;;;;;;;6.85;4.15;;;13.80;99.90;;;;;;5113858;28;20016;-82
2022/05/06 07:56:00;;;;;;;5.95;3.92;;;14.00;99.90;;;;;;5113617;28;20464;-82
2022/05/06 07:58:26;;;;;;;6.18;4.28;;;14.10;99.90;;;;;;5113417;28;20065;-83
2022/05/06 08:00:51;;;;;;;6.55;4.03;;;14.10;99.90;;;;;;5113525;28;20035;-82
2022/05/06 08:06:03;;;;;;;10.05;5.03;;;14.10;99.90;;;;;;5113316;28;20058;-82
2022/05/06 08:08:30;;;;;;;5.88;4.32;;;14.20;99.90;;;;;;5095442;28;20080;-82
2022/05/06 08:10:56;;;;;;;8.70;4.72;;;14.20;99.90;;;;;;5095231;28;20020;-82
2022/05/06 08:13:22;;;;;;;6.32;4.32;;;14.30;99.90;;;;;;5114292;28;20028;-83
2022/05/06 08:15:50;;;;;;;6.22;4.03;;;14.40;99.90;;;;;;5113358;28;20027;-82
2022/05/06 08:18:15;;;;;;;5.45;3.72;;;14.40;99.90;;;;;;5117152;28;20113;-83
2022/05/06 08:20:41;;;;;;;4.75;3.58;;;14.60;99.90;;;;;;5117037;28;20043;-83
2022/05/06 08:23:08;;;;;;;4.90;4.00;;;14.70;99.90;;;;;;5117420;28;20582;-82
2022/05/06 08:25:35;;;;;;;5.93;4.05;;;14.80;99.90;;;;;;5118270;28;20486;-82
2022/05/06 08:28:00;;;;;;;7.20;3.85;;;14.80;99.90;;;;;;5115924;28;20084;-83
2022/05/06 08:30:26;;;;;;;7.07;4.07;;;14.80;99.90;;;;;;5116795;28;20055;-83
2022/05/06 08:32:52;;;;;;;5.40;3.42;;;14.70;99.90;;;;;;5117002;28;20464;-83
2022/05/06 08:35:19;;;;;;;6.30;3.78;;;14.60;99.90;;;;;;5115180;28;20032;-81
2022/05/06 08:37:46;;;;;;;5.05;3.50;;;14.60;99.90;;;;;;5117166;28;20468;-83
2022/05/06 08:40:26;;;;;;;6.45;4.10;;;14.60;99.90;;;;;;5116664;28;20085;-82
2022/05/06 08:42:52;;;;;;;6.75;4.03;;;14.60;99.90;;;;;;5116379;28;20023;-82
2022/05/06 08:50:57;;;;;;;5.13;3.53;;;14.50;99.90;;;;;;5117085;28;20494;-82
2022/05/06 08:53:31;;;;;;;5.93;3.40;;;14.50;99.90;;;;;;5117120;28;20027;-81
2022/05/06 08:55:59;;;;;;;17.50;4.55;;;14.40;99.90;;;;;;5116659;28;20052;-82
2022/05/06 08:58:27;;;;;;;8.93;4.07;;;14.50;99.90;;;;;;5116559;28;20039;-83
2022/05/06 09:01:11;;;;;;;5.85;4.05;;;14.40;99.90;;;;;;5116327;28;20065;-82
2022/05/06 09:03:41;;;;;;;9.32;4.30;;;14.40;99.90;;;;;;5116843;28;20141;-82
2022/05/06 09:06:31;;;;;;;5.45;3.88;;;14.40;99.90;;;;;;5116862;28;20023;-82
2022/05/06 09:08:58;;;;;;;8.85;4.05;;;14.40;99.90;;;;;;5116828;28;20565;-82
2022/05/06 09:14:16;;;;;;;8.20;4.00;;;14.50;99.90;;;;;;5116179;28;20031;-82
2022/05/06 09:16:46;;;;;;;6.05;3.30;;;14.60;99.90;;;;;;5116031;28;20019;-82
2022/05/06 09:19:18;;;;;;;5.82;4.22;;;14.50;99.90;;;;;;5115824;28;20024;-82
2022/05/06 09:22:01;;;;;;;5.80;3.80;;;14.50;99.90;;;;;;5115691;28;20019;-82
2022/05/06 09:24:28;;;;;;;4.93;3.40;;;14.50;99.90;;;;;;5116404;28;20023;-82
2022/05/06 09:27:14;;;;;;;4.70;3.63;;;14.60;99.90;;;;;;5115904;28;20098;-82
2022/05/06 09:29:51;;;;;;;5.28;3.00;;;14.70;99.90;;;;;;5117183;28;20049;-82
2022/05/06 09:32:27;;;;;;;6.45;3.50;;;14.90;99.90;;;;;;5117147;28;20109;-83
2022/05/06 09:35:13;;;;;;;4.60;3.30;;;15.00;99.90;;;;;;5117519;28;20023;-83
2022/05/06 09:37:48;;;;;;;11.20;3.40;;;15.10;99.90;;;;;;5099742;28;20043;-82
2022/05/06 09:40:18;;;;;;;5.28;3.58;;;15.20;99.90;;;;;;5117813;28;20026;-82
2022/05/06 09:42:53;;;;;;;8.35;4.13;;;15.30;99.90;;;;;;5098883;28;20035;-82
2022/05/06 09:45:32;;;;;;;12.90;4.53;;;15.20;99.90;;;;;;5116553;28;20051;-82
2022/05/06 09:47:59;;;;;;;4.60;3.50;;;15.20;99.90;;;;;;5097207;28;20072;-82
2022/05/06 09:50:36;;;;;;;6.20;4.15;;;15.20;99.90;;;;;;5115965;28;20016;-82
2022/05/06 09:53:08;;;;;;;6.10;3.30;;;15.10;99.90;;;;;;5116433;28;20027;-81
2022/05/06 09:55:42;;;;;;;3.95;2.83;;;15.10;99.90;;;;;;5116459;28;20086;-83
2022/05/06 09:58:08;;;;;;;7.95;3.75;;;15.10;99.90;;;;;;5098267;28;20028;-83
2022/05/06 10:00:36;;;;;;;5.50;3.03;;;15.10;99.90;;;;;;5116295;28;20035;-83
2022/05/06 10:03:02;;;;;;;6.50;3.67;;;15.20;99.90;;;;;;5115907;28;20106;-83
2022/05/06 10:05:35;;;;;;;5.13;3.40;;;15.20;99.90;;;;;;5115869;28;20034;-83
2022/05/06 10:08:09;;;;;;;10.77;5.60;;;15.20;99.90;;;;;;5115728;28;20122;-82
2022/05/06 10:10:39;;;;;;;4.68;3.50;;;15.20;99.90;;;;;;5115299;28;20026;-82
2022/05/06 10:13:27;;;;;;;13.32;4.68;;;15.10;99.90;;;;;;5113923;28;20024;-82
2022/05/06 10:15:54;;;;;;;7.20;4.88;;;15.00;99.90;;;;;;5114775;28;20019;-82
2022/05/06 10:18:36;;;;;;;6.70;4.10;;;15.00;99.90;;;;;;5114904;28;20028;-82
2022/05/06 10:21:04;;;;;;;5.30;3.25;;;14.90;99.90;;;;;;5114646;28;20061;-82
2022/05/06 10:23:51;;;;;;;6.30;3.75;;;14.90;99.90;;;;;;5113663;28;20027;-82
2022/05/06 10:26:41;;;;;;;4.90;3.22;;;15.00;99.90;;;;;;5114542;28;20027;-82
2022/05/06 10:35:05;;;;;;;6.78;3.95;;;15.00;99.90;;;;;;5114836;28;20023;-82
2022/05/06 10:37:44;;;;;;;7.75;3.67;;;14.90;99.90;;;;;;5096493;28;20369;-82
2022/05/06 10:40:25;;;;;;;5.28;3.53;;;15.00;99.90;;;;;;5112665;28;20106;-82
2022/05/06 10:42:51;;;;;;;5.68;3.55;;;15.00;99.90;;;;;;5114792;28;20035;-82
2022/05/06 10:45:32;;;;;;;5.05;3.22;;;15.00;99.90;;;;;;5114734;28;20028;-81
2022/05/06 10:47:58;;;;;;;4.93;3.50;;;15.00;99.90;;;;;;5113301;28;20028;-81
2022/05/06 10:50:29;;;;;;;5.05;3.42;;;15.10;99.90;;;;;;5113376;28;20476;-81
2022/05/06 10:53:01;;;;;;;7.32;5.30;;;15.10;99.90;;;;;;5115466;28;20023;-82
2022/05/06 10:55:26;;;;;;;5.03;3.47;;;15.10;99.90;;;;;;5113330;28;20077;-81
2022/05/06 10:58:00;;;;;;;4.63;3.30;;;15.20;99.90;;;;;;5114212;28;20047;-81
2022/05/06 11:00:28;;;;;;;5.35;4.15;;;15.20;99.90;;;;;;5114159;28;20031;-81
2022/05/06 11:02:54;;;;;;;7.15;4.10;;;15.20;99.90;;;;;;5114262;28;20019;-82
2022/05/06 11:05:21;;;;;;;4.55;3.42;;;15.30;99.90;;;;;;5112811;28;20027;-82
2022/05/06 11:07:48;;;;;;;4.50;3.60;;;15.40;99.90;;;;;;5112793;28;20028;-81
2022/05/06 11:10:22;;;;;;;4.82;3.28;;;15.40;99.90;;;;;;5114236;28;20092;-80
2022/05/06 11:12:50;;;;;;;4.65;3.20;;;15.50;99.80;;;;;;5114119;28;20027;-81
2022/05/06 11:15:24;;;;;;;4.63;3.65;;;15.50;99.90;;;;;;5114320;28;20460;-81
2022/05/06 11:17:54;;;;;;;5.13;3.60;;;15.60;99.90;;;;;;5114156;28;20027;-80
2022/05/06 11:20:26;;;;;;;6.28;3.83;;;15.70;99.90;;;;;;5100637;28;20027;-81
2022/05/06 11:22:53;;;;;;;5.95;3.85;;;15.70;99.70;;;;;;5114409;28;20024;-81
2022/05/06 11:25:21;;;;;;;6.00;4.10;;;15.70;99.20;;;;;;5114834;28;20034;-80
2022/05/06 11:27:51;;;;;;;5.45;3.78;;;15.80;98.40;;;;;;5097222;28;20089;-80
2022/05/06 11:30:19;;;;;;;7.85;3.97;;;15.70;98.10;;;;;;5115336;28;20361;-81
2022/05/06 11:32:55;;;;;;;4.28;3.40;;;15.60;98.80;;;;;;5114240;28;20019;-81
2022/05/06 11:35:32;;;;;;;6.53;4.13;;;15.60;98.80;;;;;;5113801;28;20095;-81
2022/05/06 11:37:58;;;;;;;5.88;3.40;;;15.50;99.20;;;;;;5113886;28;20066;-82
2022/05/06 11:42:55;;;;;;;;;;;15.40;99.90;;;;;;5114324;28;20043;-82
2022/05/06 11:48:06;;;;;;;6.30;4.32;;;15.40;99.90;;;;;;5113771;28;20065;-81
2022/05/06 11:50:33;;;;;;;6.57;4.68;;;15.50;99.10;;;;;;5095453;28;20102;-81
2022/05/06 11:53:01;;;;;;;8.15;4.30;;;15.40;99.20;;;;;;5116316;28;20103;-81
2022/05/06 11:55:31;;;;;;;8.93;4.80;;;15.40;99.90;;;;;;5100517;28;20024;-82
2022/05/06 11:57:57;;;;;;;8.45;5.05;;;15.40;99.90;;;;;;5122040;28;20032;-82
2022/05/06 12:00:23;;;;;;;6.70;4.75;;;15.40;99.90;;;;;;5117432;28;20046;-83
2022/05/06 12:02:51;;;;;;;11.00;6.13;;;15.50;99.90;;;;;;5137845;27;20533;-82
2022/05/06 12:05:17;;;;;;;6.75;4.68;;;15.60;99.90;;;;;;5119218;27;20448;-83
2022/05/06 12:07:46;;;;;;;5.65;4.45;;;15.70;99.90;;;;;;5134334;27;20027;-83
2022/05/06 12:10:23;;;;;;;11.73;7.03;;;15.90;99.90;;;;;;5117187;28;20038;-82
2022/05/06 12:12:59;;;;;;;16.88;5.95;;;16.10;99.90;;;;;;5117125;28;20020;-82
2022/05/06 12:15:32;;;;;;;6.95;5.28;;;16.20;99.90;;;;;;5119746;27;20045;-82
2022/05/06 12:18:09;;;;;;;7.70;5.05;;;16.30;99.90;;;;;;5099320;28;20035;-82
2022/05/06 12:20:43;;;;;;;24.25;7.35;;;16.30;99.60;;;;;;5099200;28;20102;-82
2022/05/06 12:23:10;;;;;;;6.07;4.35;;;16.30;99.60;;;;;;5116812;28;20110;-82
2022/05/06 12:25:40;;;;;;;7.55;4.95;;;16.30;99.80;;;;;;5098812;28;20040;-82
2022/05/06 12:28:19;;;;;;;6.53;5.05;;;16.20;99.90;;;;;;5086742;28;20106;-82
2022/05/06 12:30:45;;;;;;;8.60;5.65;;;16.10;98.90;;;;;;5096754;28;20031;-82
2022/05/06 12:33:16;;;;;;;8.93;5.40;;;16.00;99.10;;;;;;5078191;28;20024;-82
2022/05/06 12:35:57;;;;;;;8.90;5.60;;;15.90;99.90;;;;;;5096496;28;20117;-82
2022/05/06 12:38:48;;;;;;;6.45;5.07;;;15.90;99.70;;;;;;5096693;28;20035;-81
2022/05/06 12:41:26;;;;;;;6.43;5.38;;;15.80;99.40;;;;;;5078235;28;20059;-81
2022/05/06 12:43:57;;;;;;;6.75;5.30;;;15.70;99.00;;;;;;5077975;28;20511;-81
2022/05/06 12:46:36;;;;;;;13.93;9.05;;;15.60;99.70;;;;;;5078186;28;20020;-82
2022/05/06 12:51:46;;;;;;;8.32;6.10;;;15.40;99.90;;;;;;5096887;28;20426;-81
2022/05/06 12:54:13;;;;;;;8.05;5.60;;;15.30;99.90;;;;;;5096240;28;20434;-82
2022/05/06 12:56:39;;;;;;;9.38;6.40;;;15.20;99.90;;;;;;5096179;28;20023;-82
2022/05/06 12:59:07;;;;;;;7.97;5.78;;;15.10;99.90;;;;;;5079278;28;20480;-83
2022/05/06 13:01:33;;;;;;;9.02;5.95;;;15.00;99.90;;;;;;5080303;28;20555;-83
2022/05/06 13:03:59;;;;;;;7.20;5.65;;;14.90;99.90;;;;;;5083357;28;20081;-82
2022/05/06 13:06:25;;;;;;;7.60;5.40;;;14.90;99.90;;;;;;5117730;28;20438;-82
2022/05/06 13:08:51;;;;;;;7.80;5.72;;;14.90;99.90;;;;;;5118316;28;20459;-85
2022/05/06 13:11:19;;;;;;;8.18;5.60;;;14.90;99.90;;;;;;5099123;28;20020;-85
2022/05/06 13:13:45;;;;;;;10.30;6.47;;;14.90;99.90;;;;;;5098162;28;20030;-84
2022/05/06 13:16:12;;;;;;;7.55;5.82;;;14.90;99.90;;;;;;5097794;28;20401;-84
2022/05/06 13:18:39;;;;;;;8.65;6.53;;;14.90;99.90;;;;;;5097900;28;20050;-83
2022/05/06 13:21:04;;;;;;;9.35;6.95;;;14.80;99.90;;;;;;5116050;28;20111;-83
2022/05/06 13:23:31;;;;;;;14.32;8.88;;;14.90;99.90;;;;;;5097543;28;20048;-84
2022/05/06 13:25:57;;;;;;;13.48;7.43;;;15.00;99.90;;;;;;5097915;28;20085;-85
2022/05/06 13:28:23;;;;;;;11.68;7.00;;;15.00;99.90;;;;;;5097843;28;20024;-84
2022/05/06 13:30:48;;;;;;;9.10;6.93;;;15.10;99.90;;;;;;5115916;28;20020;-85
2022/05/06 13:33:14;;;;;;;13.32;8.60;;;15.30;99.90;;;;;;5115768;28;20023;-84
2022/05/06 13:35:40;;;;;;;8.13;6.55;;;15.30;99.90;;;;;;5097256;28;20077;-84
2022/05/06 13:38:06;;;;;;;8.50;6.07;;;15.40;99.90;;;;;;5103173;28;20024;-84
2022/05/06 13:40:33;;;;;;;7.95;6.50;;;15.30;99.90;;;;;;5076928;28;20031;-83